sensor_id;sensor_type;location;lat;lon;timestamp;temperature;humidity
48728;DHT22;34527;45.618;5.130;2023-07-22T00:01:09;18.10;99.90
48728;DHT22;34527;45.618;5.130;2023-07-22T00:03:35;18.10;99.90
48728;DHT22;34527;45.618;5.130;2023-07-22T00:06:08;18.20;99.90
48728;DHT22;34527;45.618;5.130;2023-07-22T00:08:34;18.10;99.90
48728;DHT22;34527;45.618;5.130;2023-07-22T00:11:01;18.20;99.90
48728;DHT22;34527;45.618;5.130;2023-07-22T00:13:26;18.20;99.90
48728;DHT22;34527;45.618;5.130;2023-07-22T00:15:56;18.10;99.90
48728;DHT22;34527;45.618;5.130;2023-07-22T00:18:22;18.10;99.90
48728;DHT22;34527;45.618;5.130;2023-07-22T00:20:48;18.10;99.90
48728;DHT22;34527;45.618;5.130;2023-07-22T00:23:15;18.00;99.90
48728;DHT22;34527;45.618;5.130;2023-07-22T00:25:41;18.00;99.90
48728;DHT22;34527;45.618;5.130;2023-07-22T00:28:07;18.00;99.90
48728;DHT22;34527;45.618;5.130;2023-07-22T00:30:33;18.00;99.90
48728;DHT22;34527;45.618;5.130;2023-07-22T00:32:58;17.80;99.90
48728;DHT22;34527;45.618;5.130;2023-07-22T00:35:24;17.50;99.90
48728;DHT22;34527;45.618;5.130;2023-07-22T00:37:50;17.70;99.90
48728;DHT22;34527;45.618;5.130;2023-07-22T00:40:15;17.60;99.90
48728;DHT22;34527;45.618;5.130;2023-07-22T00:42:41;17.50;99.90
48728;DHT22;34527;45.618;5.130;2023-07-22T00:45:07;17.60;99.90
48728;DHT22;34527;45.618;5.130;2023-07-22T00:47:34;17.60;99.90
48728;DHT22;34527;45.618;5.130;2023-07-22T00:50:02;17.50;99.90
48728;DHT22;34527;45.618;5.130;2023-07-22T00:52:28;17.50;99.90
48728;DHT22;34527;45.618;5.130;2023-07-22T00:54:54;17.50;99.90
48728;DHT22;34527;45.618;5.130;2023-07-22T00:57:20;17.40;99.90
48728;DHT22;34527;45.618;5.130;2023-07-22T00:59:46;17.30;99.90
48728;DHT22;34527;45.618;5.130;2023-07-22T01:02:12;17.30;99.90
48728;DHT22;34527;45.618;5.130;2023-07-22T01:04:37;17.20;99.90
48728;DHT22;34527;45.618;5.130;2023-07-22T01:07:07;17.30;99.90
48728;DHT22;34527;45.618;5.130;2023-07-22T01:09:37;17.20;99.90
48728;DHT22;34527;45.618;5.130;2023-07-22T01:12:04;17.20;99.90
48728;DHT22;34527;45.618;5.130;2023-07-22T01:14:42;17.20;99.90
48728;DHT22;34527;45.618;5.130;2023-07-22T01:17:09;17.20;99.90
48728;DHT22;34527;45.618;5.130;2023-07-22T01:19:36;17.30;99.90
48728;DHT22;34527;45.618;5.130;2023-07-22T01:22:03;17.20;99.90
48728;DHT22;34527;45.618;5.130;2023-07-22T01:24:30;17.30;99.90
48728;DHT22;34527;45.618;5.130;2023-07-22T01:26:56;17.30;99.90
48728;DHT22;34527;45.618;5.130;2023-07-22T01:29:23;17.30;99.90
48728;DHT22;34527;45.618;5.130;2023-07-22T01:31:51;17.40;99.90
48728;DHT22;34527;45.618;5.130;2023-07-22T01:34:17;17.40;99.90
48728;DHT22;34527;45.618;5.130;2023-07-22T01:36:44;17.40;99.90
48728;DHT22;34527;45.618;5.130;2023-07-22T01:39:10;17.20;99.90
48728;DHT22;34527;45.618;5.130;2023-07-22T01:41:39;17.10;99.90
48728;DHT22;34527;45.618;5.130;2023-07-22T01:44:05;17.00;99.90
48728;DHT22;34527;45.618;5.130;2023-07-22T01:46:31;17.10;99.90
48728;DHT22;34527;45.618;5.130;2023-07-22T01:48:56;16.90;99.90
48728;DHT22;34527;45.618;5.130;2023-07-22T01:51:22;16.90;99.90
48728;DHT22;34527;45.618;5.130;2023-07-22T01:53:48;17.00;99.90
48728;DHT22;34527;45.618;5.130;2023-07-22T01:56:15;17.00;99.90
48728;DHT22;34527;45.618;5.130;2023-07-22T01:58:41;17.00;99.90
48728;DHT22;34527;45.618;5.130;2023-07-22T02:01:07;17.00;99.90
48728;DHT22;34527;45.618;5.130;2023-07-22T02:03:33;17.00;99.90
48728;DHT22;34527;45.618;5.130;2023-07-22T02:06:05;16.90;99.90
48728;DHT22;34527;45.618;5.130;2023-07-22T02:08:30;17.00;99.90
48728;DHT22;34527;45.618;5.130;2023-07-22T02:11:04;17.00;99.90
48728;DHT22;34527;45.618;5.130;2023-07-22T02:13:31;17.00;99.90
48728;DHT22;34527;45.618;5.130;2023-07-22T02:15:57;16.80;99.90
48728;DHT22;34527;45.618;5.130;2023-07-22T02:18:24;16.80;99.90
48728;DHT22;34527;45.618;5.130;2023-07-22T02:20:49;16.90;99.90
48728;DHT22;34527;45.618;5.130;2023-07-22T02:23:15;17.00;99.90
48728;DHT22;34527;45.618;5.130;2023-07-22T02:25:41;16.90;99.90
48728;DHT22;34527;45.618;5.130;2023-07-22T02:28:06;16.90;99.90
48728;DHT22;34527;45.618;5.130;2023-07-22T02:30:38;16.90;99.90
48728;DHT22;34527;45.618;5.130;2023-07-22T02:33:05;17.00;99.90
48728;DHT22;34527;45.618;5.130;2023-07-22T02:35:31;16.90;99.90
48728;DHT22;34527;45.618;5.130;2023-07-22T02:37:57;16.90;99.90
48728;DHT22;34527;45.618;5.130;2023-07-22T02:40:22;16.80;99.90
48728;DHT22;34527;45.618;5.130;2023-07-22T02:42:48;16.80;99.90
48728;DHT22;34527;45.618;5.130;2023-07-22T02:45:13;16.90;99.90
48728;DHT22;34527;45.618;5.130;2023-07-22T02:47:39;16.70;99.90
48728;DHT22;34527;45.618;5.130;2023-07-22T02:50:08;16.60;99.90
48728;DHT22;34527;45.618;5.130;2023-07-22T02:52:34;16.60;99.90
48728;DHT22;34527;45.618;5.130;2023-07-22T02:55:15;16.70;99.90
48728;DHT22;34527;45.618;5.130;2023-07-22T02:57:40;16.60;99.90
48728;DHT22;34527;45.618;5.130;2023-07-22T03:00:07;16.70;99.90
48728;DHT22;34527;45.618;5.130;2023-07-22T03:02:34;16.70;99.90
48728;DHT22;34527;45.618;5.130;2023-07-22T03:05:00;16.70;99.90
48728;DHT22;34527;45.618;5.130;2023-07-22T03:07:28;16.70;99.90
48728;DHT22;34527;45.618;5.130;2023-07-22T03:09:53;16.90;99.90
48728;DHT22;34527;45.618;5.130;2023-07-22T03:12:19;16.80;99.90
48728;DHT22;34527;45.618;5.130;2023-07-22T03:14:44;16.80;99.90
48728;DHT22;34527;45.618;5.130;2023-07-22T03:17:11;16.80;99.90
48728;DHT22;34527;45.618;5.130;2023-07-22T03:19:39;16.90;99.90
48728;DHT22;34527;45.618;5.130;2023-07-22T03:22:05;16.90;99.90
48728;DHT22;34527;45.618;5.130;2023-07-22T03:24:31;17.00;99.90
48728;DHT22;34527;45.618;5.130;2023-07-22T03:26:57;16.80;99.90
48728;DHT22;34527;45.618;5.130;2023-07-22T03:29:22;16.70;99.90
48728;DHT22;34527;45.618;5.130;2023-07-22T03:31:49;16.60;99.90
48728;DHT22;34527;45.618;5.130;2023-07-22T03:34:15;16.50;99.90
48728;DHT22;34527;45.618;5.130;2023-07-22T03:36:41;16.50;99.90
48728;DHT22;34527;45.618;5.130;2023-07-22T03:39:06;16.40;99.90
48728;DHT22;34527;45.618;5.130;2023-07-22T03:41:33;16.50;99.90
48728;DHT22;34527;45.618;5.130;2023-07-22T03:43:58;16.70;99.90
48728;DHT22;34527;45.618;5.130;2023-07-22T03:46:24;16.80;99.90
48728;DHT22;34527;45.618;5.130;2023-07-22T03:48:49;16.80;99.90
48728;DHT22;34527;45.618;5.130;2023-07-22T03:51:15;16.90;99.90
48728;DHT22;34527;45.618;5.130;2023-07-22T03:53:40;16.90;99.90
48728;DHT22;34527;45.618;5.130;2023-07-22T03:56:06;16.90;99.90
48728;DHT22;34527;45.618;5.130;2023-07-22T03:58:32;16.80;99.90
48728;DHT22;34527;45.618;5.130;2023-07-22T04:00:57;16.80;99.90
48728;DHT22;34527;45.618;5.130;2023-07-22T04:03:23;16.80;99.90
48728;DHT22;34527;45.618;5.130;2023-07-22T04:05:58;16.80;99.90
48728;DHT22;34527;45.618;5.130;2023-07-22T04:08:23;16.90;99.90
48728;DHT22;34527;45.618;5.130;2023-07-22T04:10:53;16.80;99.90
48728;DHT22;34527;45.618;5.130;2023-07-22T04:13:19;16.90;99.90
48728;DHT22;34527;45.618;5.130;2023-07-22T04:15:44;16.70;99.90
48728;DHT22;34527;45.618;5.130;2023-07-22T04:18:10;16.60;99.90
48728;DHT22;34527;45.618;5.130;2023-07-22T04:20:36;16.60;99.90
48728;DHT22;34527;45.618;5.130;2023-07-22T04:23:01;16.70;99.90
48728;DHT22;34527;45.618;5.130;2023-07-22T04:25:27;16.70;99.90
48728;DHT22;34527;45.618;5.130;2023-07-22T04:27:52;16.70;99.90
48728;DHT22;34527;45.618;5.130;2023-07-22T04:30:18;16.70;99.90
48728;DHT22;34527;45.618;5.130;2023-07-22T04:32:48;16.70;99.90
48728;DHT22;34527;45.618;5.130;2023-07-22T04:35:17;16.70;99.90
48728;DHT22;34527;45.618;5.130;2023-07-22T04:37:45;16.70;99.90
48728;DHT22;34527;45.618;5.130;2023-07-22T04:40:12;16.80;99.90
48728;DHT22;34527;45.618;5.130;2023-07-22T04:42:42;16.90;99.90
48728;DHT22;34527;45.618;5.130;2023-07-22T04:45:09;16.90;99.90
48728;DHT22;34527;45.618;5.130;2023-07-22T04:47:40;16.90;99.90
48728;DHT22;34527;45.618;5.130;2023-07-22T04:50:07;16.90;99.90
48728;DHT22;34527;45.618;5.130;2023-07-22T04:52:35;16.90;99.90
48728;DHT22;34527;45.618;5.130;2023-07-22T04:55:01;17.00;99.90
48728;DHT22;34527;45.618;5.130;2023-07-22T04:57:38;17.10;99.90
48728;DHT22;34527;45.618;5.130;2023-07-22T05:00:04;17.00;99.90
48728;DHT22;34527;45.618;5.130;2023-07-22T05:02:30;17.10;99.90
48728;DHT22;34527;45.618;5.130;2023-07-22T05:04:56;17.10;99.90
48728;DHT22;34527;45.618;5.130;2023-07-22T05:07:22;17.10;99.90
48728;DHT22;34527;45.618;5.130;2023-07-22T05:09:48;17.10;99.90
48728;DHT22;34527;45.618;5.130;2023-07-22T05:12:14;17.20;99.90
48728;DHT22;34527;45.618;5.130;2023-07-22T05:14:39;17.20;99.90
48728;DHT22;34527;45.618;5.130;2023-07-22T05:17:05;17.30;99.90
48728;DHT22;34527;45.618;5.130;2023-07-22T05:19:31;17.30;99.90
48728;DHT22;34527;45.618;5.130;2023-07-22T05:21:56;17.30;99.90
48728;DHT22;34527;45.618;5.130;2023-07-22T05:24:22;17.30;99.90
48728;DHT22;34527;45.618;5.130;2023-07-22T05:26:48;17.30;99.90
48728;DHT22;34527;45.618;5.130;2023-07-22T05:29:14;17.40;99.90
48728;DHT22;34527;45.618;5.130;2023-07-22T05:31:39;17.40;99.90
48728;DHT22;34527;45.618;5.130;2023-07-22T05:34:05;17.30;99.90
48728;DHT22;34527;45.618;5.130;2023-07-22T05:36:30;17.30;99.90
48728;DHT22;34527;45.618;5.130;2023-07-22T05:38:57;17.50;99.90
48728;DHT22;34527;45.618;5.130;2023-07-22T05:41:23;17.50;99.90
48728;DHT22;34527;45.618;5.130;2023-07-22T05:43:48;17.50;99.90
48728;DHT22;34527;45.618;5.130;2023-07-22T05:46:14;17.50;99.90
48728;DHT22;34527;45.618;5.130;2023-07-22T05:48:39;17.50;99.90
48728;DHT22;34527;45.618;5.130;2023-07-22T05:51:05;17.60;99.90
48728;DHT22;34527;45.618;5.130;2023-07-22T05:53:32;17.70;99.90
48728;DHT22;34527;45.618;5.130;2023-07-22T05:55:58;17.70;99.90
48728;DHT22;34527;45.618;5.130;2023-07-22T05:58:23;17.80;99.90
48728;DHT22;34527;45.618;5.130;2023-07-22T06:00:49;18.00;99.90
48728;DHT22;34527;45.618;5.130;2023-07-22T06:03:17;18.00;99.90
48728;DHT22;34527;45.618;5.130;2023-07-22T06:05:43;18.10;99.90
48728;DHT22;34527;45.618;5.130;2023-07-22T06:08:08;18.20;99.90
48728;DHT22;34527;45.618;5.130;2023-07-22T06:10:34;18.30;99.90
48728;DHT22;34527;45.618;5.130;2023-07-22T06:13:00;18.40;99.90
48728;DHT22;34527;45.618;5.130;2023-07-22T06:15:25;18.40;99.90
48728;DHT22;34527;45.618;5.130;2023-07-22T06:17:51;18.60;99.90
48728;DHT22;34527;45.618;5.130;2023-07-22T06:20:17;18.60;99.90
48728;DHT22;34527;45.618;5.130;2023-07-22T06:22:42;18.70;99.90
48728;DHT22;34527;45.618;5.130;2023-07-22T06:25:08;18.90;99.90
48728;DHT22;34527;45.618;5.130;2023-07-22T06:27:34;19.00;99.90
48728;DHT22;34527;45.618;5.130;2023-07-22T06:30:00;19.10;99.90
48728;DHT22;34527;45.618;5.130;2023-07-22T06:32:26;19.20;99.90
48728;DHT22;34527;45.618;5.130;2023-07-22T06:34:56;19.40;99.90
48728;DHT22;34527;45.618;5.130;2023-07-22T06:37:22;19.50;99.90
48728;DHT22;34527;45.618;5.130;2023-07-22T06:39:48;19.60;99.90
48728;DHT22;34527;45.618;5.130;2023-07-22T06:42:14;19.70;99.90
48728;DHT22;34527;45.618;5.130;2023-07-22T06:44:39;19.70;99.90
48728;DHT22;34527;45.618;5.130;2023-07-22T06:47:05;19.80;99.90
48728;DHT22;34527;45.618;5.130;2023-07-22T06:49:31;19.80;99.90
48728;DHT22;34527;45.618;5.130;2023-07-22T06:51:57;20.00;99.90
48728;DHT22;34527;45.618;5.130;2023-07-22T06:54:23;20.00;99.90
48728;DHT22;34527;45.618;5.130;2023-07-22T06:56:49;20.10;99.90
48728;DHT22;34527;45.618;5.130;2023-07-22T06:59:14;20.20;99.90
48728;DHT22;34527;45.618;5.130;2023-07-22T07:01:40;20.20;99.90
48728;DHT22;34527;45.618;5.130;2023-07-22T07:04:06;20.30;99.90
48728;DHT22;34527;45.618;5.130;2023-07-22T07:06:32;20.40;99.90
48728;DHT22;34527;45.618;5.130;2023-07-22T07:09:00;20.50;99.90
48728;DHT22;34527;45.618;5.130;2023-07-22T07:11:28;20.50;99.90
48728;DHT22;34527;45.618;5.130;2023-07-22T07:13:53;20.60;99.90
48728;DHT22;34527;45.618;5.130;2023-07-22T07:16:27;20.60;99.90
48728;DHT22;34527;45.618;5.130;2023-07-22T07:18:53;20.80;99.90
48728;DHT22;34527;45.618;5.130;2023-07-22T07:21:20;21.00;99.90
48728;DHT22;34527;45.618;5.130;2023-07-22T07:23:47;21.10;99.90
48728;DHT22;34527;45.618;5.130;2023-07-22T07:26:13;21.20;99.90
48728;DHT22;34527;45.618;5.130;2023-07-22T07:28:39;21.00;99.90
48728;DHT22;34527;45.618;5.130;2023-07-22T07:31:04;21.00;99.90
48728;DHT22;34527;45.618;5.130;2023-07-22T07:33:30;21.00;99.90
48728;DHT22;34527;45.618;5.130;2023-07-22T07:35:56;21.10;99.90
48728;DHT22;34527;45.618;5.130;2023-07-22T07:38:22;21.20;99.90
48728;DHT22;34527;45.618;5.130;2023-07-22T07:40:55;21.40;99.90
48728;DHT22;34527;45.618;5.130;2023-07-22T07:43:21;21.50;99.90
48728;DHT22;34527;45.618;5.130;2023-07-22T07:45:47;21.60;99.90
48728;DHT22;34527;45.618;5.130;2023-07-22T07:48:12;21.70;99.90
48728;DHT22;34527;45.618;5.130;2023-07-22T07:50:38;21.70;99.90
48728;DHT22;34527;45.618;5.130;2023-07-22T07:53:04;21.80;99.90
48728;DHT22;34527;45.618;5.130;2023-07-22T07:55:29;21.80;99.90
48728;DHT22;34527;45.618;5.130;2023-07-22T07:57:55;21.70;99.90
48728;DHT22;34527;45.618;5.130;2023-07-22T08:00:20;21.80;99.90
48728;DHT22;34527;45.618;5.130;2023-07-22T08:02:46;21.80;99.90
48728;DHT22;34527;45.618;5.130;2023-07-22T08:05:12;21.90;99.90
48728;DHT22;34527;45.618;5.130;2023-07-22T08:07:38;22.00;99.90
48728;DHT22;34527;45.618;5.130;2023-07-22T08:10:05;22.00;99.90
48728;DHT22;34527;45.618;5.130;2023-07-22T08:12:32;22.00;99.90
48728;DHT22;34527;45.618;5.130;2023-07-22T08:14:59;22.10;99.90
48728;DHT22;34527;45.618;5.130;2023-07-22T08:17:25;22.30;99.90
48728;DHT22;34527;45.618;5.130;2023-07-22T08:19:51;22.50;99.90
48728;DHT22;34527;45.618;5.130;2023-07-22T08:22:17;22.70;99.90
48728;DHT22;34527;45.618;5.130;2023-07-22T08:24:43;22.60;99.90
48728;DHT22;34527;45.618;5.130;2023-07-22T08:27:09;22.70;99.90
48728;DHT22;34527;45.618;5.130;2023-07-22T08:29:35;22.90;99.90
48728;DHT22;34527;45.618;5.130;2023-07-22T08:32:00;23.00;99.90
48728;DHT22;34527;45.618;5.130;2023-07-22T08:34:26;23.00;99.90
48728;DHT22;34527;45.618;5.130;2023-07-22T08:36:52;23.10;99.90
48728;DHT22;34527;45.618;5.130;2023-07-22T08:39:18;23.30;99.90
48728;DHT22;34527;45.618;5.130;2023-07-22T08:41:49;23.40;99.90
48728;DHT22;34527;45.618;5.130;2023-07-22T08:44:19;23.50;99.90
48728;DHT22;34527;45.618;5.130;2023-07-22T08:46:46;23.60;99.90
48728;DHT22;34527;45.618;5.130;2023-07-22T08:49:15;23.80;99.90
48728;DHT22;34527;45.618;5.130;2023-07-22T08:51:41;23.90;99.90
48728;DHT22;34527;45.618;5.130;2023-07-22T08:54:07;23.80;99.90
48728;DHT22;34527;45.618;5.130;2023-07-22T08:56:34;23.80;99.90
48728;DHT22;34527;45.618;5.130;2023-07-22T08:59:00;23.70;99.90
48728;DHT22;34527;45.618;5.130;2023-07-22T09:01:26;23.90;99.90
48728;DHT22;34527;45.618;5.130;2023-07-22T09:03:54;23.90;99.90
48728;DHT22;34527;45.618;5.130;2023-07-22T09:06:22;23.90;99.90
48728;DHT22;34527;45.618;5.130;2023-07-22T09:08:48;24.00;99.90
48728;DHT22;34527;45.618;5.130;2023-07-22T09:11:14;23.90;99.90
48728;DHT22;34527;45.618;5.130;2023-07-22T09:13:41;24.00;99.90
48728;DHT22;34527;45.618;5.130;2023-07-22T09:16:10;24.10;99.90
48728;DHT22;34527;45.618;5.130;2023-07-22T09:18:36;24.20;99.90
48728;DHT22;34527;45.618;5.130;2023-07-22T09:21:02;24.20;99.90
48728;DHT22;34527;45.618;5.130;2023-07-22T09:23:36;24.20;99.90
48728;DHT22;34527;45.618;5.130;2023-07-22T09:26:09;24.10;99.90
48728;DHT22;34527;45.618;5.130;2023-07-22T09:28:54;24.40;99.90
48728;DHT22;34527;45.618;5.130;2023-07-22T09:31:22;24.50;99.90
48728;DHT22;34527;45.618;5.130;2023-07-22T09:33:48;24.70;99.90
48728;DHT22;34527;45.618;5.130;2023-07-22T09:36:14;24.60;99.90
48728;DHT22;34527;45.618;5.130;2023-07-22T09:38:40;24.80;99.90
48728;DHT22;34527;45.618;5.130;2023-07-22T09:41:06;25.00;99.90
48728;DHT22;34527;45.618;5.130;2023-07-22T09:43:35;25.10;99.90
48728;DHT22;34527;45.618;5.130;2023-07-22T09:46:09;25.20;99.90
48728;DHT22;34527;45.618;5.130;2023-07-22T09:48:42;25.30;99.90
48728;DHT22;34527;45.618;5.130;2023-07-22T09:51:13;25.40;99.90
48728;DHT22;34527;45.618;5.130;2023-07-22T09:53:47;25.50;99.90
48728;DHT22;34527;45.618;5.130;2023-07-22T09:56:13;25.50;99.90
48728;DHT22;34527;45.618;5.130;2023-07-22T09:58:40;25.60;99.90
48728;DHT22;34527;45.618;5.130;2023-07-22T10:01:07;25.60;99.90
48728;DHT22;34527;45.618;5.130;2023-07-22T10:03:33;25.70;99.90
48728;DHT22;34527;45.618;5.130;2023-07-22T10:06:03;25.90;99.90
48728;DHT22;34527;45.618;5.130;2023-07-22T10:08:34;25.90;99.90
48728;DHT22;34527;45.618;5.130;2023-07-22T10:11:00;25.70;99.90
48728;DHT22;34527;45.618;5.130;2023-07-22T10:13:28;25.70;99.90
48728;DHT22;34527;45.618;5.130;2023-07-22T10:15:54;25.70;99.90
48728;DHT22;34527;45.618;5.130;2023-07-22T10:18:21;25.60;99.90
48728;DHT22;34527;45.618;5.130;2023-07-22T10:20:48;25.70;99.90
48728;DHT22;34527;45.618;5.130;2023-07-22T10:23:15;25.70;99.90
48728;DHT22;34527;45.618;5.130;2023-07-22T10:25:42;25.80;99.90
48728;DHT22;34527;45.618;5.130;2023-07-22T10:28:08;25.90;99.90
48728;DHT22;34527;45.618;5.130;2023-07-22T10:30:33;26.00;99.90
48728;DHT22;34527;45.618;5.130;2023-07-22T10:32:59;25.90;99.90
48728;DHT22;34527;45.618;5.130;2023-07-22T10:38:17;26.20;99.90
48728;DHT22;34527;45.618;5.130;2023-07-22T10:40:47;26.10;99.90
48728;DHT22;34527;45.618;5.130;2023-07-22T10:43:15;26.30;99.90
48728;DHT22;34527;45.618;5.130;2023-07-22T10:45:42;26.20;99.90
48728;DHT22;34527;45.618;5.130;2023-07-22T10:48:10;26.10;99.90
48728;DHT22;34527;45.618;5.130;2023-07-22T10:50:44;25.90;99.90
48728;DHT22;34527;45.618;5.130;2023-07-22T11:01:33;26.60;99.90
48728;DHT22;34527;45.618;5.130;2023-07-22T11:06:35;26.50;99.90
48728;DHT22;34527;45.618;5.130;2023-07-22T11:09:01;26.30;99.90
48728;DHT22;34527;45.618;5.130;2023-07-22T11:11:37;26.20;99.90
48728;DHT22;34527;45.618;5.130;2023-07-22T11:14:17;26.30;99.90
48728;DHT22;34527;45.618;5.130;2023-07-22T11:16:45;26.40;99.90
48728;DHT22;34527;45.618;5.130;2023-07-22T11:19:12;26.40;99.90
48728;DHT22;34527;45.618;5.130;2023-07-22T11:21:38;26.90;99.90
48728;DHT22;34527;45.618;5.130;2023-07-22T11:24:05;26.90;99.90
48728;DHT22;34527;45.618;5.130;2023-07-22T11:26:31;26.80;99.90
48728;DHT22;34527;45.618;5.130;2023-07-22T11:28:57;26.90;99.90
48728;DHT22;34527;45.618;5.130;2023-07-22T11:31:30;26.80;99.90
48728;DHT22;34527;45.618;5.130;2023-07-22T11:33:56;26.80;99.90
48728;DHT22;34527;45.618;5.130;2023-07-22T11:36:22;27.20;99.90
48728;DHT22;34527;45.618;5.130;2023-07-22T11:38:48;27.30;99.90
48728;DHT22;34527;45.618;5.130;2023-07-22T11:41:14;27.50;99.90
48728;DHT22;34527;45.618;5.130;2023-07-22T11:43:40;27.30;99.90
48728;DHT22;34527;45.618;5.130;2023-07-22T11:46:06;27.40;99.90
48728;DHT22;34527;45.618;5.130;2023-07-22T11:48:32;27.50;99.90
48728;DHT22;34527;45.618;5.130;2023-07-22T11:51:01;27.50;99.90
48728;DHT22;34527;45.618;5.130;2023-07-22T11:53:27;27.70;99.90
48728;DHT22;34527;45.618;5.130;2023-07-22T11:55:55;27.70;99.90
48728;DHT22;34527;45.618;5.130;2023-07-22T11:58:25;27.50;99.90
48728;DHT22;34527;45.618;5.130;2023-07-22T12:01:02;27.40;99.90
48728;DHT22;34527;45.618;5.130;2023-07-22T12:03:33;27.40;99.90
48728;DHT22;34527;45.618;5.130;2023-07-22T12:06:06;27.40;99.90
48728;DHT22;34527;45.618;5.130;2023-07-22T12:08:33;27.40;99.90
48728;DHT22;34527;45.618;5.130;2023-07-22T12:10:59;27.40;99.90
48728;DHT22;34527;45.618;5.130;2023-07-22T12:13:25;27.60;99.90
48728;DHT22;34527;45.618;5.130;2023-07-22T12:16:04;27.60;99.90
48728;DHT22;34527;45.618;5.130;2023-07-22T12:18:46;27.60;99.90
48728;DHT22;34527;45.618;5.130;2023-07-22T12:21:13;28.00;99.90
48728;DHT22;34527;45.618;5.130;2023-07-22T12:23:40;27.90;99.90
48728;DHT22;34527;45.618;5.130;2023-07-22T12:26:06;27.70;99.90
48728;DHT22;34527;45.618;5.130;2023-07-22T12:28:32;27.40;99.90
48728;DHT22;34527;45.618;5.130;2023-07-22T12:30:58;27.50;99.90
48728;DHT22;34527;45.618;5.130;2023-07-22T12:33:25;27.50;99.90
48728;DHT22;34527;45.618;5.130;2023-07-22T12:35:53;27.50;99.90
48728;DHT22;34527;45.618;5.130;2023-07-22T12:38:19;27.70;99.90
48728;DHT22;34527;45.618;5.130;2023-07-22T12:40:45;27.40;99.90
48728;DHT22;34527;45.618;5.130;2023-07-22T12:43:11;27.20;99.90
48728;DHT22;34527;45.618;5.130;2023-07-22T12:45:36;27.40;99.90
48728;DHT22;34527;45.618;5.130;2023-07-22T12:48:02;27.50;99.90
48728;DHT22;34527;45.618;5.130;2023-07-22T12:50:29;27.50;99.90
48728;DHT22;34527;45.618;5.130;2023-07-22T12:52:55;27.70;99.90
48728;DHT22;34527;45.618;5.130;2023-07-22T12:55:21;28.00;99.90
48728;DHT22;34527;45.618;5.130;2023-07-22T12:57:46;28.10;99.90
48728;DHT22;34527;45.618;5.130;2023-07-22T13:00:12;28.10;99.90
48728;DHT22;34527;45.618;5.130;2023-07-22T13:02:38;28.40;99.90
48728;DHT22;34527;45.618;5.130;2023-07-22T13:05:04;28.10;99.90
48728;DHT22;34527;45.618;5.130;2023-07-22T13:07:31;28.10;99.90
48728;DHT22;34527;45.618;5.130;2023-07-22T13:09:57;28.10;99.90
48728;DHT22;34527;45.618;5.130;2023-07-22T13:12:24;27.90;99.90
48728;DHT22;34527;45.618;5.130;2023-07-22T13:14:50;28.00;99.90
48728;DHT22;34527;45.618;5.130;2023-07-22T13:17:15;27.80;99.90
48728;DHT22;34527;45.618;5.130;2023-07-22T13:19:41;27.70;99.90
48728;DHT22;34527;45.618;5.130;2023-07-22T13:22:06;27.80;99.90
48728;DHT22;34527;45.618;5.130;2023-07-22T13:24:32;28.10;99.90
48728;DHT22;34527;45.618;5.130;2023-07-22T13:26:58;28.10;99.90
48728;DHT22;34527;45.618;5.130;2023-07-22T13:29:23;28.10;99.90
48728;DHT22;34527;45.618;5.130;2023-07-22T13:31:49;28.30;99.90
48728;DHT22;34527;45.618;5.130;2023-07-22T13:34:14;28.20;99.90
48728;DHT22;34527;45.618;5.130;2023-07-22T13:36:40;28.30;99.90
48728;DHT22;34527;45.618;5.130;2023-07-22T13:39:06;28.10;99.90
48728;DHT22;34527;45.618;5.130;2023-07-22T13:41:32;28.00;99.90
48728;DHT22;34527;45.618;5.130;2023-07-22T13:43:57;28.20;99.90
48728;DHT22;34527;45.618;5.130;2023-07-22T13:46:23;28.20;99.90
48728;DHT22;34527;45.618;5.130;2023-07-22T13:48:48;28.50;99.90
48728;DHT22;34527;45.618;5.130;2023-07-22T13:51:14;28.50;99.90
48728;DHT22;34527;45.618;5.130;2023-07-22T13:53:40;28.70;99.90
48728;DHT22;34527;45.618;5.130;2023-07-22T13:56:05;28.80;99.90
48728;DHT22;34527;45.618;5.130;2023-07-22T13:58:31;28.90;99.90
48728;DHT22;34527;45.618;5.130;2023-07-22T14:00:57;29.00;99.90
48728;DHT22;34527;45.618;5.130;2023-07-22T14:03:22;29.10;99.90
48728;DHT22;34527;45.618;5.130;2023-07-22T14:05:48;29.00;99.90
48728;DHT22;34527;45.618;5.130;2023-07-22T14:08:13;29.20;99.90
48728;DHT22;34527;45.618;5.130;2023-07-22T14:10:39;29.30;99.90
48728;DHT22;34527;45.618;5.130;2023-07-22T14:13:05;29.50;99.90
48728;DHT22;34527;45.618;5.130;2023-07-22T14:15:30;29.40;99.90
48728;DHT22;34527;45.618;5.130;2023-07-22T14:17:56;29.50;99.90
48728;DHT22;34527;45.618;5.130;2023-07-22T14:20:22;29.40;99.90
48728;DHT22;34527;45.618;5.130;2023-07-22T14:22:47;29.50;99.90
48728;DHT22;34527;45.618;5.130;2023-07-22T14:25:15;29.50;99.90
48728;DHT22;34527;45.618;5.130;2023-07-22T14:27:41;29.60;99.90
48728;DHT22;34527;45.618;5.130;2023-07-22T14:30:08;29.50;99.90
48728;DHT22;34527;45.618;5.130;2023-07-22T14:32:34;29.20;99.90
48728;DHT22;34527;45.618;5.130;2023-07-22T14:34:59;29.40;99.90
48728;DHT22;34527;45.618;5.130;2023-07-22T14:37:25;29.40;99.90
48728;DHT22;34527;45.618;5.130;2023-07-22T14:39:50;29.50;99.90
48728;DHT22;34527;45.618;5.130;2023-07-22T14:42:16;29.60;99.90
48728;DHT22;34527;45.618;5.130;2023-07-22T14:44:42;29.20;99.90
48728;DHT22;34527;45.618;5.130;2023-07-22T14:47:07;29.50;99.90
48728;DHT22;34527;45.618;5.130;2023-07-22T14:49:33;29.50;99.90
48728;DHT22;34527;45.618;5.130;2023-07-22T14:51:58;29.20;99.90
48728;DHT22;34527;45.618;5.130;2023-07-22T14:54:24;29.20;99.90
48728;DHT22;34527;45.618;5.130;2023-07-22T14:56:49;29.20;99.90
48728;DHT22;34527;45.618;5.130;2023-07-22T14:59:15;29.10;99.90
48728;DHT22;34527;45.618;5.130;2023-07-22T15:01:41;29.40;99.90
48728;DHT22;34527;45.618;5.130;2023-07-22T15:04:08;29.20;99.90
48728;DHT22;34527;45.618;5.130;2023-07-22T15:06:34;29.00;99.90
48728;DHT22;34527;45.618;5.130;2023-07-22T15:09:01;29.10;99.90
48728;DHT22;34527;45.618;5.130;2023-07-22T15:11:27;29.10;99.90
48728;DHT22;34527;45.618;5.130;2023-07-22T15:13:53;29.40;99.90
48728;DHT22;34527;45.618;5.130;2023-07-22T15:16:18;29.50;99.90
48728;DHT22;34527;45.618;5.130;2023-07-22T15:18:44;29.40;99.90
48728;DHT22;34527;45.618;5.130;2023-07-22T15:21:09;29.30;99.90
48728;DHT22;34527;45.618;5.130;2023-07-22T15:23:35;29.30;99.90
48728;DHT22;34527;45.618;5.130;2023-07-22T15:26:01;29.10;99.90
48728;DHT22;34527;45.618;5.130;2023-07-22T15:28:26;29.10;99.90
48728;DHT22;34527;45.618;5.130;2023-07-22T15:30:55;29.30;99.90
48728;DHT22;34527;45.618;5.130;2023-07-22T15:33:20;29.30;99.90
48728;DHT22;34527;45.618;5.130;2023-07-22T15:35:47;29.30;99.90
48728;DHT22;34527;45.618;5.130;2023-07-22T15:38:13;29.30;99.90
48728;DHT22;34527;45.618;5.130;2023-07-22T15:40:39;29.20;99.90